createdAt,value
2022-10-09T00:01:32.568Z,12.79
2022-10-09T00:04:01.456Z,12.77
2022-10-09T00:06:34.842Z,12.74
2022-10-09T00:09:05.118Z,12.71
2022-10-09T00:11:35.529Z,12.69
2022-10-09T00:14:06.010Z,12.63
2022-10-09T00:16:34.590Z,12.59
2022-10-09T00:19:02.896Z,12.56
2022-10-09T00:21:33.476Z,12.51
2022-10-09T00:24:05.770Z,12.49
2022-10-09T00:26:34.972Z,12.48
2022-10-09T00:29:05.266Z,12.42
2022-10-09T00:31:33.638Z,12.39
2022-10-09T00:34:01.920Z,12.36
2022-10-09T00:36:30.244Z,12.33
2022-10-09T00:38:58.611Z,12.28
2022-10-09T00:41:31.024Z,12.24
2022-10-09T00:44:02.575Z,12.20
2022-10-09T00:46:40.954Z,12.15
2022-10-09T00:49:22.188Z,12.11
2022-10-09T00:51:53.003Z,12.06
2022-10-09T00:54:25.470Z,12.07
2022-10-09T00:56:54.499Z,12.03
2022-10-09T00:59:23.214Z,12.02
2022-10-09T01:01:52.951Z,11.98
2022-10-09T01:04:21.278Z,11.95
2022-10-09T01:07:05.852Z,11.90
2022-10-09T01:09:43.523Z,11.85
2022-10-09T01:12:23.406Z,11.82
2022-10-09T01:15:06.161Z,11.78
2022-10-09T01:17:43.402Z,11.75
2022-10-09T01:20:41.903Z,11.71
2022-10-09T01:24:01.988Z,11.65
2022-10-09T01:26:52.104Z,11.60
2022-10-09T01:29:21.661Z,11.57
2022-10-09T01:31:52.291Z,11.56
2022-10-09T01:34:22.392Z,11.54
2022-10-09T01:36:52.612Z,11.52
2022-10-09T01:39:23.947Z,11.50
2022-10-09T01:41:54.831Z,11.47
2022-10-09T01:44:26.268Z,11.45
2022-10-09T01:46:54.836Z,11.43
2022-10-09T01:49:42.026Z,11.39
2022-10-09T01:52:46.302Z,11.36
2022-10-09T01:55:29.498Z,11.33
2022-10-09T01:58:06.941Z,11.29
2022-10-09T02:00:38.822Z,11.28
2022-10-09T02:03:11.603Z,11.29
2022-10-09T02:05:42.259Z,11.27
2022-10-09T02:08:13.850Z,11.24
2022-10-09T02:10:43.553Z,11.21
2022-10-09T02:13:13.648Z,11.20
2022-10-09T02:15:49.882Z,11.17
2022-10-09T02:18:28.060Z,11.16
2022-10-09T02:21:02.204Z,11.13
2022-10-09T02:23:31.049Z,11.11
2022-10-09T02:25:59.932Z,11.10
2022-10-09T02:28:30.521Z,11.08
2022-10-09T02:31:05.679Z,11.08
2022-10-09T02:33:35.253Z,11.07
2022-10-09T02:36:04.571Z,11.04
2022-10-09T02:38:32.827Z,11.02
2022-10-09T02:41:01.758Z,11.02
2022-10-09T02:43:31.346Z,11.02
2022-10-09T02:45:59.727Z,11.00
2022-10-09T02:48:28.031Z,11.00
2022-10-09T02:50:56.292Z,10.98
2022-10-09T02:53:24.651Z,10.98
2022-10-09T02:55:52.946Z,10.95
2022-10-09T02:58:21.209Z,10.92
2022-10-09T03:00:52.076Z,10.89
2022-10-09T03:03:21.756Z,10.89
2022-10-09T03:05:50.059Z,10.86
2022-10-09T03:08:18.464Z,10.84
2022-10-09T03:10:46.704Z,10.81
2022-10-09T03:13:14.894Z,10.78
2022-10-09T03:15:43.172Z,10.75
2022-10-09T03:18:13.186Z,10.72
2022-10-09T03:20:41.437Z,10.69
2022-10-09T03:23:09.631Z,10.68
2022-10-09T03:25:37.922Z,10.66
2022-10-09T03:28:06.269Z,10.64
2022-10-09T03:30:34.590Z,10.62
2022-10-09T03:33:03.076Z,10.58
2022-10-09T03:35:32.740Z,10.55
2022-10-09T03:38:00.931Z,10.54
2022-10-09T03:40:29.189Z,10.51
2022-10-09T03:42:57.386Z,10.49
2022-10-09T03:45:25.840Z,10.44
2022-10-09T03:47:54.226Z,10.43
2022-10-09T03:50:22.435Z,10.41
2022-10-09T03:52:52.164Z,10.37
2022-10-09T03:55:20.417Z,10.34
2022-10-09T03:57:48.656Z,10.29
2022-10-09T04:00:17.278Z,10.28
2022-10-09T04:02:45.601Z,10.25
2022-10-09T04:05:13.940Z,10.23
2022-10-09T04:07:42.157Z,10.21
2022-10-09T04:10:12.285Z,10.17
2022-10-09T04:12:40.693Z,10.14
2022-10-09T04:15:10.636Z,10.12
2022-10-09T04:17:38.945Z,10.08
2022-10-09T04:20:08.415Z,10.06
2022-10-09T04:22:36.606Z,10.03
2022-10-09T04:25:05.331Z,10.00
2022-10-09T04:27:34.906Z,10.01
2022-10-09T04:30:03.217Z,9.99
2022-10-09T04:32:31.417Z,9.98
2022-10-09T04:34:59.664Z,9.94
2022-10-09T04:37:27.880Z,9.92
2022-10-09T04:39:56.127Z,9.90
2022-10-09T04:42:24.447Z,9.88
2022-10-09T04:44:54.055Z,9.87
2022-10-09T04:47:22.257Z,9.85
2022-10-09T04:49:50.543Z,9.83
2022-10-09T04:52:18.759Z,9.83
2022-10-09T04:54:47.000Z,9.80
2022-10-09T04:57:15.215Z,9.78
2022-10-09T04:59:43.424Z,9.75
2022-10-09T05:02:13.056Z,9.73
2022-10-09T05:04:41.346Z,9.70
2022-10-09T05:07:09.592Z,9.68
2022-10-09T05:09:37.806Z,9.67
2022-10-09T05:12:07.009Z,9.64
2022-10-09T05:14:35.225Z,9.62
2022-10-09T05:17:23.215Z,9.61
2022-10-09T05:19:53.264Z,9.57
2022-10-09T05:22:21.512Z,9.55
2022-10-09T05:24:49.699Z,9.53
2022-10-09T05:27:17.941Z,9.53
2022-10-09T05:29:46.146Z,9.52
2022-10-09T05:32:14.712Z,9.53
2022-10-09T05:34:42.972Z,9.50
2022-10-09T05:37:12.560Z,9.50
2022-10-09T05:39:40.811Z,9.50
2022-10-09T05:42:09.031Z,9.47
2022-10-09T05:44:37.463Z,9.46
2022-10-09T05:47:05.796Z,9.44
2022-10-09T05:49:34.063Z,9.45
2022-10-09T05:52:02.300Z,9.44
2022-10-09T05:54:32.033Z,9.45
2022-10-09T05:57:00.260Z,9.44
2022-10-09T05:59:28.649Z,9.45
2022-10-09T06:01:57.025Z,9.45
2022-10-09T06:04:26.193Z,9.46
2022-10-09T06:06:54.467Z,9.48
2022-10-09T06:09:25.542Z,9.49
2022-10-09T06:11:56.235Z,9.51
2022-10-09T06:14:25.071Z,9.54
2022-10-09T06:16:53.674Z,9.57
2022-10-09T06:19:22.966Z,9.61
2022-10-09T06:21:51.904Z,9.64
2022-10-09T06:24:27.292Z,9.67
2022-10-09T06:26:59.043Z,9.71
2022-10-09T06:29:27.738Z,9.73
2022-10-09T06:31:55.931Z,9.79
2022-10-09T06:34:24.475Z,9.83
2022-10-09T06:36:52.701Z,9.87
2022-10-09T06:39:21.128Z,9.92
2022-10-09T06:41:49.516Z,9.97
2022-10-09T06:44:19.393Z,10.03
2022-10-09T06:46:50.832Z,10.08
2022-10-09T06:49:19.121Z,10.15
2022-10-09T06:51:47.385Z,10.24
2022-10-09T06:54:17.364Z,10.32
2022-10-09T06:56:46.203Z,10.40
2022-10-09T06:59:14.494Z,10.51
2022-10-09T07:01:44.136Z,10.62
2022-10-09T07:04:14.814Z,10.74
2022-10-09T07:06:45.304Z,10.87
2022-10-09T07:09:15.362Z,11.01
2022-10-09T07:11:46.076Z,11.15
2022-10-09T07:14:15.918Z,11.27
2022-10-09T07:16:48.375Z,11.40
2022-10-09T07:19:18.276Z,11.55
2022-10-09T07:21:48.629Z,11.66
2022-10-09T07:24:20.389Z,11.80
2022-10-09T07:26:49.224Z,11.94
2022-10-09T07:29:19.603Z,12.09
2022-10-09T07:31:49.861Z,12.24
2022-10-09T07:34:18.124Z,12.39
2022-10-09T07:36:46.384Z,12.51
2022-10-09T07:39:14.656Z,12.65
2022-10-09T07:41:43.398Z,12.82
2022-10-09T07:44:12.139Z,12.98
2022-10-09T07:46:40.494Z,13.12
2022-10-09T07:49:10.540Z,13.26
2022-10-09T07:51:38.993Z,13.40
2022-10-09T07:54:07.314Z,13.52
2022-10-09T07:56:37.949Z,13.66
2022-10-09T07:59:08.531Z,13.77
2022-10-09T08:01:37.369Z,13.88
2022-10-09T08:04:06.678Z,13.99
2022-10-09T08:06:36.740Z,14.06
2022-10-09T08:09:07.475Z,14.11
2022-10-09T08:11:40.412Z,14.20
2022-10-09T08:14:09.278Z,14.26
2022-10-09T08:16:37.502Z,14.32
2022-10-09T08:19:05.843Z,14.39
2022-10-09T08:21:35.471Z,14.45
2022-10-09T08:24:03.756Z,14.48
2022-10-09T08:26:32.524Z,14.55
2022-10-09T08:29:03.012Z,14.58
2022-10-09T08:31:32.902Z,14.63
2022-10-09T08:34:03.715Z,14.66
2022-10-09T08:36:32.893Z,14.70
2022-10-09T08:39:02.499Z,14.73
2022-10-09T08:41:44.810Z,14.76
2022-10-09T08:44:19.674Z,14.80
2022-10-09T08:47:09.098Z,14.83
2022-10-09T08:49:46.266Z,14.89
2022-10-09T08:52:26.808Z,14.93
2022-10-09T08:55:17.838Z,14.96
2022-10-09T08:57:50.735Z,15.07
2022-10-09T09:00:22.149Z,15.18
2022-10-09T09:03:29.121Z,15.26
2022-10-09T09:06:06.148Z,15.34
2022-10-09T09:08:46.403Z,15.44
2022-10-09T09:11:25.085Z,15.51
2022-10-09T09:14:08.854Z,15.54
2022-10-09T09:16:45.442Z,15.58
2022-10-09T09:19:38.489Z,15.65
2022-10-09T09:22:11.586Z,15.71
2022-10-09T09:24:44.580Z,15.74
2022-10-09T09:27:19.233Z,15.79
2022-10-09T09:29:55.756Z,15.84
2022-10-09T09:32:27.700Z,15.83
2022-10-09T09:35:06.598Z,15.85
2022-10-09T09:37:37.468Z,15.88
2022-10-09T09:40:35.443Z,15.91
2022-10-09T09:42:59.782Z,15.95
2022-10-09T09:45:30.999Z,16.00
2022-10-09T09:48:05.659Z,16.04
2022-10-09T09:50:53.016Z,16.06
2022-10-09T09:53:31.740Z,16.09
2022-10-09T09:56:00.981Z,16.13
2022-10-09T09:58:35.847Z,16.14
2022-10-09T10:01:06.502Z,16.19
2022-10-09T10:03:36.622Z,16.21
2022-10-09T10:06:05.433Z,16.28
2022-10-09T10:08:35.342Z,16.28
2022-10-09T10:11:08.517Z,16.36
2022-10-09T10:13:46.491Z,16.38
2022-10-09T10:16:24.562Z,16.45
2022-10-09T10:18:53.074Z,16.52
2022-10-09T10:21:23.091Z,16.60
2022-10-09T10:23:57.405Z,16.65
2022-10-09T10:26:30.771Z,16.69
2022-10-09T10:29:10.271Z,16.79
2022-10-09T10:31:52.407Z,16.82
2022-10-09T10:34:27.538Z,16.87
2022-10-09T10:37:03.532Z,16.91
2022-10-09T10:39:42.009Z,16.97
2022-10-09T10:42:16.627Z,16.99
2022-10-09T10:44:59.488Z,17.04
2022-10-09T10:47:32.304Z,17.04
2022-10-09T10:50:00.580Z,17.09
2022-10-09T10:52:41.496Z,17.13
2022-10-09T10:55:28.930Z,17.04
2022-10-09T10:58:11.303Z,17.15
2022-10-09T11:00:50.397Z,17.19
2022-10-09T11:03:58.657Z,17.28
2022-10-09T11:06:34.701Z,17.33
2022-10-09T11:09:12.894Z,17.41
2022-10-09T11:11:47.656Z,17.50
2022-10-09T11:14:30.061Z,17.61
2022-10-09T11:17:10.307Z,17.67
2022-10-09T11:19:58.507Z,17.77
2022-10-09T11:22:43.549Z,17.84
2022-10-09T11:25:26.369Z,17.98
2022-10-09T11:28:00.166Z,18.08
2022-10-09T11:30:32.762Z,18.15
2022-10-09T11:33:07.227Z,18.25
2022-10-09T11:35:43.798Z,18.35
2022-10-09T11:38:27.504Z,18.39
2022-10-09T11:40:56.941Z,18.50
2022-10-09T11:43:53.928Z,18.56
2022-10-09T11:46:35.950Z,18.59
2022-10-09T11:49:14.532Z,18.66
2022-10-09T11:51:49.153Z,18.68
2022-10-09T11:54:21.331Z,18.73
2022-10-09T11:56:58.567Z,18.77
2022-10-09T11:59:30.758Z,18.81
2022-10-09T12:02:01.260Z,18.90
2022-10-09T12:07:32.533Z,18.95
2022-10-09T12:10:07.226Z,18.98
2022-10-09T12:12:37.783Z,19.03
2022-10-09T12:15:25.967Z,19.05
2022-10-09T12:17:54.368Z,19.09
2022-10-09T12:20:26.716Z,19.10
2022-10-09T12:23:25.310Z,19.14
2022-10-09T12:25:51.258Z,19.15
2022-10-09T12:28:30.227Z,19.19
2022-10-09T12:31:01.162Z,19.25
2022-10-09T12:33:36.367Z,19.26
2022-10-09T12:36:14.854Z,19.28
2022-10-09T12:38:44.016Z,19.35
2022-10-09T12:41:20.972Z,19.34
2022-10-09T12:43:51.237Z,19.40
2022-10-09T12:46:29.875Z,19.42
2022-10-09T12:48:58.803Z,19.50
2022-10-09T12:51:32.636Z,19.50
2022-10-09T12:54:00.852Z,19.54
2022-10-09T12:56:33.555Z,19.55
2022-10-09T12:59:02.932Z,19.61
2022-10-09T13:01:31.783Z,19.64
2022-10-09T13:04:04.281Z,19.58
2022-10-09T13:06:43.291Z,19.61
2022-10-09T13:09:22.724Z,19.58
2022-10-09T13:11:57.964Z,19.57
2022-10-09T13:14:34.500Z,19.56
2022-10-09T13:17:03.372Z,19.56
2022-10-09T13:19:35.361Z,19.52
2022-10-09T13:22:20.184Z,19.51
2022-10-09T13:24:53.081Z,19.48
2022-10-09T13:27:22.170Z,19.49
2022-10-09T13:29:50.610Z,19.48
2022-10-09T13:32:19.971Z,19.48
2022-10-09T13:34:48.518Z,19.44
2022-10-09T13:37:20.192Z,19.43
2022-10-09T13:39:48.721Z,19.44
2022-10-09T13:42:18.474Z,19.42
2022-10-09T13:44:46.867Z,19.39
2022-10-09T13:47:15.161Z,19.41
2022-10-09T13:49:43.439Z,19.38
2022-10-09T13:52:12.050Z,19.37
2022-10-09T13:54:41.995Z,19.38
2022-10-09T13:57:10.257Z,19.35
2022-10-09T13:59:38.514Z,19.34
2022-10-09T14:02:06.842Z,19.33
2022-10-09T14:04:35.086Z,19.26
2022-10-09T14:07:03.291Z,19.27
2022-10-09T14:09:31.755Z,19.27
2022-10-09T14:12:01.329Z,19.25
2022-10-09T14:14:29.569Z,19.23
2022-10-09T14:16:57.831Z,19.22
2022-10-09T14:19:27.798Z,19.23
2022-10-09T14:21:56.193Z,19.21
2022-10-09T14:24:25.278Z,19.21
2022-10-09T14:26:53.772Z,19.20
2022-10-09T14:29:23.396Z,19.19
2022-10-09T14:31:52.579Z,19.20
2022-10-09T14:34:20.817Z,19.17
2022-10-09T14:36:49.903Z,19.14
2022-10-09T14:39:18.259Z,19.14
2022-10-09T14:41:46.671Z,19.12
2022-10-09T14:44:15.077Z,19.10
2022-10-09T14:46:44.668Z,19.09
2022-10-09T14:49:15.625Z,19.08
2022-10-09T14:51:43.979Z,19.08
2022-10-09T14:54:14.619Z,19.05
2022-10-09T14:56:42.909Z,19.02
2022-10-09T14:59:11.126Z,19.03
2022-10-09T15:01:39.545Z,19.02
2022-10-09T15:04:09.216Z,19.00
2022-10-09T15:06:37.551Z,18.99
2022-10-09T15:09:06.451Z,19.00
2022-10-09T15:11:36.083Z,18.98
2022-10-09T15:14:05.193Z,18.95
2022-10-09T15:16:33.733Z,18.95
2022-10-09T15:19:02.325Z,18.93
2022-10-09T15:21:33.649Z,18.91
2022-10-09T15:24:03.829Z,18.90
2022-10-09T15:26:35.666Z,18.87
2022-10-09T15:29:05.527Z,18.86
2022-10-09T15:31:38.707Z,18.81
2022-10-09T15:34:09.694Z,18.78
2022-10-09T15:36:43.104Z,18.75
2022-10-09T15:39:11.827Z,18.73
2022-10-09T15:41:42.756Z,18.70
2022-10-09T15:44:16.929Z,18.65
2022-10-09T15:46:46.354Z,18.62
2022-10-09T15:49:14.818Z,18.57
2022-10-09T15:51:44.573Z,18.54
2022-10-09T15:54:14.381Z,18.51
2022-10-09T15:56:42.811Z,18.48
2022-10-09T15:59:13.765Z,18.44
2022-10-09T16:01:42.145Z,18.44
2022-10-09T16:04:10.818Z,18.42
2022-10-09T16:06:39.163Z,18.40
2022-10-09T16:09:09.031Z,18.39
2022-10-09T16:11:37.361Z,18.36
2022-10-09T16:14:05.667Z,18.33
2022-10-09T16:16:33.938Z,18.29
2022-10-09T16:19:05.138Z,18.26
2022-10-09T16:21:33.837Z,18.21
2022-10-09T16:24:02.187Z,18.17
2022-10-09T16:26:31.919Z,18.11
2022-10-09T16:29:01.625Z,18.06
2022-10-09T16:31:34.716Z,18.01
2022-10-09T16:34:04.313Z,17.95
2022-10-09T16:36:32.662Z,17.90
2022-10-09T16:39:01.051Z,17.84
2022-10-09T16:41:29.567Z,17.79
2022-10-09T16:44:00.287Z,17.73
2022-10-09T16:49:03.068Z,17.62
2022-10-09T16:51:34.279Z,17.58
2022-10-09T16:54:05.567Z,17.52
2022-10-09T16:56:36.772Z,17.48
2022-10-09T16:59:11.136Z,17.41
2022-10-09T17:01:43.605Z,17.36
2022-10-09T17:04:13.158Z,17.29
2022-10-09T17:06:42.613Z,17.22
2022-10-09T17:09:13.929Z,17.20
2022-10-09T17:11:43.506Z,17.14
2022-10-09T17:14:14.352Z,17.08
2022-10-09T17:16:44.309Z,17.00
2022-10-09T17:19:12.592Z,16.97
2022-10-09T17:21:41.532Z,16.93
2022-10-09T17:24:12.697Z,16.87
2022-10-09T17:26:41.039Z,16.81
2022-10-09T17:29:09.383Z,16.77
2022-10-09T17:31:39.058Z,16.71
2022-10-09T17:34:08.092Z,16.64
2022-10-09T17:36:40.579Z,16.61
2022-10-09T17:39:14.024Z,16.57
2022-10-09T17:41:43.312Z,16.53
2022-10-09T17:44:11.949Z,16.50
2022-10-09T17:46:41.648Z,16.45
2022-10-09T17:49:10.534Z,16.42
2022-10-09T17:51:40.872Z,16.39
2022-10-09T17:54:13.342Z,16.34
2022-10-09T17:56:42.568Z,16.33
2022-10-09T17:59:12.011Z,16.32
2022-10-09T18:01:41.909Z,16.28
2022-10-09T18:04:15.568Z,16.25
2022-10-09T18:06:43.959Z,16.23
2022-10-09T18:09:12.739Z,16.21
2022-10-09T18:11:41.066Z,16.17
2022-10-09T18:14:10.420Z,16.14
2022-10-09T18:16:38.919Z,16.11
2022-10-09T18:19:12.294Z,16.06
2022-10-09T18:21:42.713Z,16.03
2022-10-09T18:24:11.372Z,16.01
2022-10-09T18:26:39.781Z,15.99
2022-10-09T18:29:08.362Z,15.96
2022-10-09T18:31:37.806Z,15.93
2022-10-09T18:34:06.242Z,15.91
2022-10-09T18:36:36.286Z,15.88
2022-10-09T18:39:09.752Z,15.82
2022-10-09T18:41:38.858Z,15.80
2022-10-09T18:44:12.612Z,15.76
2022-10-09T18:46:45.032Z,15.71
2022-10-09T18:49:17.519Z,15.66
2022-10-09T18:51:48.631Z,15.65
2022-10-09T18:54:18.493Z,15.59
2022-10-09T18:56:47.663Z,15.57
2022-10-09T18:59:20.039Z,15.53
2022-10-09T19:01:48.388Z,15.49
2022-10-09T19:04:16.934Z,15.46
2022-10-09T19:06:46.676Z,15.40
2022-10-09T19:09:16.355Z,15.35
2022-10-09T19:11:44.925Z,15.31
2022-10-09T19:14:13.268Z,15.27
2022-10-09T19:16:41.624Z,15.23
2022-10-09T19:19:09.955Z,15.18
2022-10-09T19:21:43.715Z,15.14
2022-10-09T19:24:14.503Z,15.08
2022-10-09T19:26:43.637Z,15.05
2022-10-09T19:29:12.083Z,15.01
2022-10-09T19:31:40.412Z,14.96
2022-10-09T19:34:09.131Z,14.93
2022-10-09T19:36:37.698Z,14.90
2022-10-09T19:39:08.115Z,14.86
2022-10-09T19:41:37.884Z,14.82
2022-10-09T19:44:06.344Z,14.78
2022-10-09T19:46:37.088Z,14.73
2022-10-09T19:49:05.846Z,14.72
2022-10-09T19:51:37.037Z,14.68
2022-10-09T19:54:06.875Z,14.65
2022-10-09T19:56:38.289Z,14.61
2022-10-09T19:59:09.641Z,14.58
2022-10-09T20:01:40.273Z,14.55
2022-10-09T20:04:11.910Z,14.51
2022-10-09T20:06:42.644Z,14.48
2022-10-09T20:09:13.013Z,14.45
2022-10-09T20:11:42.889Z,14.39
2022-10-09T20:14:11.930Z,14.39
2022-10-09T20:16:40.465Z,14.36
2022-10-09T20:19:08.985Z,14.33
2022-10-09T20:21:37.351Z,14.30
2022-10-09T20:24:07.108Z,14.26
2022-10-09T20:26:37.704Z,14.21
2022-10-09T20:29:10.585Z,14.18
2022-10-09T20:31:38.857Z,14.13
2022-10-09T20:34:07.114Z,14.11
2022-10-09T20:36:39.120Z,14.07
2022-10-09T20:39:10.030Z,14.04
2022-10-09T20:41:39.507Z,14.01
2022-10-09T20:44:08.269Z,13.97
2022-10-09T20:46:39.853Z,13.93
2022-10-09T20:49:12.230Z,13.90
2022-10-09T20:51:41.142Z,13.86
2022-10-09T20:54:13.779Z,13.81
2022-10-09T20:56:42.096Z,13.77
2022-10-09T20:59:10.301Z,13.75
2022-10-09T21:01:40.023Z,13.71
2022-10-09T21:04:15.423Z,13.66
2022-10-09T21:06:44.450Z,13.63
2022-10-09T21:09:12.746Z,13.60
2022-10-09T21:11:41.609Z,13.58
2022-10-09T21:14:11.408Z,13.52
2022-10-09T21:16:41.141Z,13.47
2022-10-09T21:19:11.591Z,13.44
2022-10-09T21:21:39.913Z,13.40
2022-10-09T21:24:08.292Z,13.38
2022-10-09T21:26:36.502Z,13.33
2022-10-09T21:29:05.667Z,13.30
2022-10-09T21:31:34.608Z,13.28
2022-10-09T21:34:04.297Z,13.24
2022-10-09T21:36:47.128Z,13.21
2022-10-09T21:39:27.281Z,13.16
2022-10-09T21:41:56.067Z,13.13
2022-10-09T21:44:24.369Z,13.11
2022-10-09T21:46:52.627Z,13.08
2022-10-09T21:49:24.620Z,13.07
2022-10-09T21:51:53.152Z,13.04
2022-10-09T21:54:22.355Z,13.03
2022-10-09T21:56:50.634Z,13.04
2022-10-09T21:59:19.251Z,13.03
2022-10-09T22:01:47.523Z,13.04
2022-10-09T22:04:15.847Z,13.02
2022-10-09T22:06:45.554Z,13.02
2022-10-09T22:09:13.863Z,13.04
2022-10-09T22:11:44.359Z,13.04
2022-10-09T22:14:13.037Z,13.04
2022-10-09T22:16:41.231Z,13.05
2022-10-09T22:19:09.480Z,13.04
2022-10-09T22:21:37.864Z,13.04
2022-10-09T22:24:07.689Z,13.03
2022-10-09T22:26:35.933Z,13.04
2022-10-09T22:29:04.331Z,13.03
2022-10-09T22:31:32.682Z,13.03
2022-10-09T22:34:02.656Z,13.03
2022-10-09T22:36:33.607Z,13.02
2022-10-09T22:39:05.519Z,13.00
2022-10-09T22:41:36.715Z,12.99
2022-10-09T22:44:07.020Z,12.98
2022-10-09T22:46:37.423Z,12.97
2022-10-09T22:49:07.380Z,12.94
2022-10-09T22:51:35.836Z,12.94
2022-10-09T22:54:04.756Z,12.93
2022-10-09T22:56:36.901Z,12.90
2022-10-09T22:59:05.411Z,12.89
2022-10-09T23:01:37.869Z,12.88
2022-10-09T23:04:09.043Z,12.87
2022-10-09T23:06:37.302Z,12.86
2022-10-09T23:09:07.687Z,12.84
2022-10-09T23:11:37.796Z,12.84
2022-10-09T23:14:09.495Z,12.83
2022-10-09T23:16:37.828Z,12.82
2022-10-09T23:19:07.305Z,12.81
2022-10-09T23:21:37.603Z,12.81
2022-10-09T23:24:06.765Z,12.79
2022-10-09T23:26:38.037Z,12.80
2022-10-09T23:29:09.324Z,12.78
2022-10-09T23:31:37.817Z,12.80
2022-10-09T23:34:07.976Z,12.80
2022-10-09T23:36:36.565Z,12.80
2022-10-09T23:39:07.849Z,12.79
2022-10-09T23:41:39.075Z,12.79
2022-10-09T23:44:07.355Z,12.77
2022-10-09T23:46:37.562Z,12.77
2022-10-09T23:49:06.099Z,12.75
2022-10-09T23:51:34.307Z,12.78
2022-10-09T23:54:02.731Z,12.79
2022-10-09T23:56:33.134Z,12.76
2022-10-09T23:59:06.114Z,12.75
